createdAt,value
2017-10-02T00:00:25.979Z,12.50
2017-10-02T00:00:59.868Z,12.50
2017-10-02T00:01:33.591Z,12.50
2017-10-02T00:02:08.072Z,12.50
2017-10-02T00:02:41.802Z,12.50
2017-10-02T00:03:16.302Z,12.50
2017-10-02T00:03:50.796Z,12.50
2017-10-02T00:04:24.522Z,12.50
2017-10-02T00:04:58.256Z,12.50
2017-10-02T00:05:32.305Z,12.60
2017-10-02T00:06:06.048Z,12.50
2017-10-02T00:06:39.765Z,12.60
2017-10-02T00:07:14.244Z,12.60
2017-10-02T00:07:47.996Z,12.60
2017-10-02T00:08:21.722Z,12.60
2017-10-02T00:08:55.446Z,12.60
2017-10-02T00:09:29.928Z,12.50
2017-10-02T00:10:03.301Z,12.60
2017-10-02T00:10:37.366Z,12.50
2017-10-02T00:11:11.088Z,12.60
2017-10-02T00:11:44.817Z,12.50
2017-10-02T00:12:19.317Z,12.50
2017-10-02T00:12:53.134Z,12.50
2017-10-02T00:13:26.875Z,12.60
2017-10-02T00:14:00.589Z,12.60
2017-10-02T00:14:34.305Z,12.50
2017-10-02T00:15:08.796Z,12.50
2017-10-02T00:15:42.824Z,12.50
2017-10-02T00:16:16.575Z,12.50
2017-10-02T00:16:50.331Z,12.50
2017-10-02T00:17:24.064Z,12.50
2017-10-02T00:17:57.778Z,12.50
2017-10-02T00:18:32.266Z,12.50
2017-10-02T00:19:05.984Z,12.50
2017-10-02T00:19:39.701Z,12.50
2017-10-02T00:20:13.425Z,12.40
2017-10-02T00:20:47.485Z,12.40
2017-10-02T00:21:21.199Z,12.40
2017-10-02T00:21:54.912Z,12.40
2017-10-02T00:22:28.725Z,12.40
2017-10-02T00:23:03.240Z,12.40
2017-10-02T00:23:37.728Z,12.40
2017-10-02T00:24:11.444Z,12.40
2017-10-02T00:24:45.183Z,12.40
2017-10-02T00:25:18.921Z,12.40
2017-10-02T00:25:54.045Z,12.40
2017-10-02T00:26:28.543Z,12.40
2017-10-02T00:27:03.032Z,12.30
2017-10-02T00:27:36.753Z,12.30
2017-10-02T00:28:10.467Z,12.40
2017-10-02T00:28:44.184Z,12.30
2017-10-02T00:29:17.907Z,12.30
2017-10-02T00:29:52.388Z,12.30
2017-10-02T00:30:26.105Z,12.30
2017-10-02T00:31:00.957Z,12.30
2017-10-02T00:31:34.697Z,12.30
2017-10-02T00:32:08.417Z,12.30
2017-10-02T00:32:43.208Z,12.30
2017-10-02T00:33:16.826Z,12.30
2017-10-02T00:33:51.301Z,12.30
2017-10-02T00:34:25.024Z,12.20
2017-10-02T00:34:59.504Z,12.20
2017-10-02T00:35:33.225Z,12.20
2017-10-02T00:36:07.341Z,12.20
2017-10-02T00:36:41.063Z,12.20
2017-10-02T00:37:14.784Z,12.20
2017-10-02T00:37:48.531Z,12.20
2017-10-02T00:38:22.268Z,12.20
2017-10-02T00:38:56.001Z,12.20
2017-10-02T00:39:29.719Z,12.10
2017-10-02T00:40:03.437Z,12.10
2017-10-02T00:40:36.818Z,12.10
2017-10-02T00:41:10.853Z,12.10
2017-10-02T00:41:44.575Z,12.10
2017-10-02T00:42:17.952Z,12.10
2017-10-02T00:42:51.717Z,12.10
2017-10-02T00:43:25.085Z,12.10
2017-10-02T00:43:59.581Z,12.10
2017-10-02T00:44:34.077Z,12.10
2017-10-02T00:45:07.806Z,12.10
2017-10-02T00:45:41.544Z,12.10
2017-10-02T00:46:15.217Z,12.10
2017-10-02T00:46:50.675Z,12.10
2017-10-02T00:47:24.381Z,12.10
2017-10-02T00:47:58.875Z,12.10
2017-10-02T00:48:32.260Z,12.10
2017-10-02T00:49:06.007Z,12.10
2017-10-02T00:49:39.966Z,12.10
2017-10-02T00:50:14.449Z,12.10
2017-10-02T00:50:47.476Z,12.10
2017-10-02T00:51:20.796Z,12.10
2017-10-02T00:51:54.173Z,12.10
2017-10-02T00:52:27.208Z,12.10
2017-10-02T00:53:00.233Z,12.10
2017-10-02T00:53:33.256Z,12.10
2017-10-02T00:54:06.972Z,12.10
2017-10-02T00:54:40.685Z,12.10
2017-10-02T00:55:14.068Z,12.10
2017-10-02T00:55:47.782Z,12.10
2017-10-02T00:56:21.193Z,12.10
2017-10-02T00:56:55.664Z,12.10
2017-10-02T00:57:29.388Z,12.10
2017-10-02T00:58:03.632Z,12.10
2017-10-02T00:58:37.334Z,12.10
2017-10-02T00:59:10.704Z,12.10
2017-10-02T00:59:44.430Z,12.10
2017-10-02T01:00:17.804Z,12.10
2017-10-02T01:00:51.525Z,12.10
2017-10-02T01:01:25.536Z,12.10
2017-10-02T01:01:59.260Z,12.10
2017-10-02T01:02:32.995Z,12.10
2017-10-02T01:03:07.477Z,12.10
2017-10-02T01:03:41.190Z,12.10
2017-10-02T01:04:15.669Z,12.10
2017-10-02T01:04:49.395Z,12.20
2017-10-02T01:05:23.598Z,12.20
2017-10-02T01:05:57.390Z,12.10
2017-10-02T01:06:31.913Z,12.10
2017-10-02T01:07:05.645Z,12.20
2017-10-02T01:07:39.361Z,12.10
2017-10-02T01:08:13.894Z,12.10
2017-10-02T01:08:48.368Z,12.10
2017-10-02T01:09:22.086Z,12.10
2017-10-02T01:09:55.884Z,12.10
2017-10-02T01:10:30.368Z,12.00
2017-10-02T01:11:04.082Z,12.10
2017-10-02T01:11:38.832Z,12.00
2017-10-02T01:12:12.192Z,12.00
2017-10-02T01:12:45.917Z,12.10
2017-10-02T01:13:19.294Z,12.00
2017-10-02T01:13:53.006Z,12.00
2017-10-02T01:14:26.732Z,12.00
2017-10-02T01:15:01.225Z,12.00
2017-10-02T01:15:35.718Z,12.00
2017-10-02T01:16:09.436Z,12.00
2017-10-02T01:16:44.221Z,11.90
2017-10-02T01:17:17.591Z,11.90
2017-10-02T01:17:51.305Z,11.90
2017-10-02T01:18:25.018Z,11.90
2017-10-02T01:18:59.504Z,11.90
2017-10-02T01:19:33.216Z,11.90
2017-10-02T01:20:07.704Z,11.80
2017-10-02T01:20:41.421Z,11.80
2017-10-02T01:21:15.175Z,11.80
2017-10-02T01:21:49.221Z,11.80
2017-10-02T01:22:22.940Z,11.80
2017-10-02T01:22:56.671Z,11.80
2017-10-02T01:23:30.393Z,11.70
2017-10-02T01:24:04.111Z,11.70
2017-10-02T01:24:37.830Z,11.70
2017-10-02T01:25:12.876Z,11.70
2017-10-02T01:25:47.362Z,11.70
2017-10-02T01:26:21.081Z,11.70
2017-10-02T01:26:55.913Z,11.70
2017-10-02T01:27:29.640Z,11.70
2017-10-02T01:28:03.373Z,11.70
2017-10-02T01:28:37.851Z,11.60
2017-10-02T01:29:11.679Z,11.60
2017-10-02T01:29:46.157Z,11.60
2017-10-02T01:30:19.865Z,11.60
2017-10-02T01:30:54.367Z,11.60
2017-10-02T01:31:28.077Z,11.60
2017-10-02T01:32:02.913Z,11.60
2017-10-02T01:32:36.636Z,11.60
2017-10-02T01:33:10.354Z,11.60
2017-10-02T01:33:44.091Z,11.50
2017-10-02T01:34:17.797Z,11.50
2017-10-02T01:34:51.546Z,11.50
2017-10-02T01:35:26.028Z,11.50
2017-10-02T01:35:59.745Z,11.50
2017-10-02T01:36:34.224Z,11.50
2017-10-02T01:37:07.952Z,11.50
2017-10-02T01:37:42.431Z,11.50
2017-10-02T01:38:16.157Z,11.40
2017-10-02T01:38:49.881Z,11.50
2017-10-02T01:39:23.603Z,11.50
2017-10-02T01:39:57.324Z,11.50
2017-10-02T01:40:31.803Z,11.40
2017-10-02T01:41:05.516Z,11.40
2017-10-02T01:41:39.673Z,11.40
2017-10-02T01:42:53.604Z,11.40
2017-10-02T01:43:27.326Z,11.40
2017-10-02T01:44:01.035Z,11.40
2017-10-02T01:44:35.509Z,11.40
2017-10-02T01:45:09.212Z,11.40
2017-10-02T01:45:42.926Z,11.40
2017-10-02T01:46:17.403Z,11.40
2017-10-02T01:46:51.116Z,11.40
2017-10-02T01:47:25.951Z,11.40
2017-10-02T01:47:59.663Z,11.40
2017-10-02T01:48:33.373Z,11.40
2017-10-02T01:49:07.093Z,11.40
2017-10-02T01:49:41.581Z,11.40
2017-10-02T01:50:15.287Z,11.40
2017-10-02T01:50:48.991Z,11.40
2017-10-02T01:51:23.460Z,11.40
2017-10-02T01:51:57.204Z,11.40
2017-10-02T01:52:32.037Z,11.40
2017-10-02T01:53:05.763Z,11.40
2017-10-02T01:53:39.473Z,11.40
2017-10-02T01:54:13.183Z,11.40
2017-10-02T01:54:47.665Z,11.40
2017-10-02T01:55:21.373Z,11.40
2017-10-02T01:55:55.085Z,11.40
2017-10-02T01:56:29.561Z,11.30
2017-10-02T01:57:03.272Z,11.40
2017-10-02T01:57:38.105Z,11.30
2017-10-02T01:58:11.811Z,11.30
2017-10-02T01:58:45.545Z,11.30
2017-10-02T01:59:19.245Z,11.30
2017-10-02T01:59:53.721Z,11.30
2017-10-02T02:00:27.439Z,11.30
2017-10-02T02:01:01.143Z,11.30
2017-10-02T02:01:35.624Z,11.30
2017-10-02T02:02:09.332Z,11.30
2017-10-02T02:02:43.359Z,11.30
2017-10-02T02:03:17.832Z,11.30
2017-10-02T02:03:51.549Z,11.20
2017-10-02T02:04:26.022Z,11.30
2017-10-02T02:04:59.732Z,11.30
2017-10-02T02:05:33.448Z,11.30
2017-10-02T02:06:07.152Z,11.30
2017-10-02T02:06:40.857Z,11.30
2017-10-02T02:07:14.556Z,11.30
2017-10-02T02:07:48.580Z,11.30
2017-10-02T02:08:22.290Z,11.30
2017-10-02T02:08:56.777Z,11.20
2017-10-02T02:09:30.486Z,11.20
2017-10-02T02:10:04.965Z,11.20
2017-10-02T02:10:38.679Z,11.20
2017-10-02T02:11:12.385Z,11.20
2017-10-02T02:11:46.860Z,11.20
2017-10-02T02:12:20.578Z,11.20
2017-10-02T02:12:55.407Z,11.20
2017-10-02T02:13:29.141Z,11.20
2017-10-02T02:14:02.848Z,11.10
2017-10-02T02:14:36.566Z,11.10
2017-10-02T02:15:10.848Z,11.10
2017-10-02T02:15:44.552Z,11.10
2017-10-02T02:16:19.037Z,11.10
2017-10-02T02:16:52.755Z,11.10
2017-10-02T02:17:27.258Z,11.10
2017-10-02T02:18:01.284Z,11.10
2017-10-02T02:18:35.002Z,11.10
2017-10-02T02:19:08.720Z,11.10
2017-10-02T02:19:42.427Z,11.10
2017-10-02T02:20:16.139Z,11.10
2017-10-02T02:20:49.853Z,11.00
2017-10-02T02:21:23.577Z,11.10
2017-10-02T02:21:57.283Z,11.00
2017-10-02T02:22:31.006Z,11.10
2017-10-02T02:23:05.109Z,11.00
2017-10-02T02:23:38.813Z,11.00
2017-10-02T02:24:12.535Z,11.00
2017-10-02T02:24:46.272Z,11.10
2017-10-02T02:25:20.054Z,11.00
2017-10-02T02:25:54.544Z,11.00
2017-10-02T02:26:28.273Z,11.00
2017-10-02T02:27:01.995Z,11.00
2017-10-02T02:27:35.728Z,11.00
2017-10-02T02:28:10.533Z,11.00
2017-10-02T02:28:44.255Z,11.00
2017-10-02T02:29:17.966Z,11.00
2017-10-02T02:29:51.673Z,11.00
2017-10-02T02:30:25.398Z,11.00
2017-10-02T02:30:59.132Z,11.00
2017-10-02T02:31:32.852Z,11.00
2017-10-02T02:32:06.594Z,11.00
2017-10-02T02:32:40.311Z,11.00
2017-10-02T02:33:14.392Z,11.00
2017-10-02T02:33:48.169Z,11.00
2017-10-02T02:34:22.677Z,11.00
2017-10-02T02:34:57.289Z,11.00
2017-10-02T02:35:31.821Z,11.00
2017-10-02T02:36:05.538Z,11.00
2017-10-02T02:36:39.265Z,11.00
2017-10-02T02:37:12.986Z,11.00
2017-10-02T02:37:46.704Z,11.00
2017-10-02T02:38:20.861Z,11.00
2017-10-02T02:38:55.340Z,11.00
2017-10-02T02:39:29.163Z,11.00
2017-10-02T02:40:03.318Z,11.00
2017-10-02T02:40:37.037Z,11.00
2017-10-02T02:41:10.763Z,11.00
2017-10-02T02:41:44.491Z,11.00
2017-10-02T02:42:18.221Z,11.00
2017-10-02T02:42:51.936Z,11.00
2017-10-02T02:43:25.668Z,11.00
2017-10-02T02:43:59.398Z,11.00
2017-10-02T02:44:33.881Z,11.00
2017-10-02T02:45:07.703Z,10.90
2017-10-02T02:45:42.184Z,11.00
2017-10-02T02:46:15.922Z,11.00
2017-10-02T02:46:49.633Z,11.00
2017-10-02T02:47:23.368Z,11.00
2017-10-02T02:47:57.080Z,10.90
2017-10-02T02:48:31.601Z,11.00
2017-10-02T02:49:05.357Z,11.00
2017-10-02T02:49:39.853Z,11.00
2017-10-02T02:50:13.581Z,11.00
2017-10-02T02:50:48.059Z,11.00
2017-10-02T02:51:21.794Z,11.00
2017-10-02T02:51:55.582Z,10.90
2017-10-02T02:52:29.318Z,11.00
2017-10-02T02:53:03.022Z,11.00
2017-10-02T02:53:37.048Z,10.90
2017-10-02T02:54:11.519Z,11.00
2017-10-02T02:54:45.246Z,10.90
2017-10-02T02:55:19.726Z,11.00
2017-10-02T02:55:53.444Z,11.00
2017-10-02T02:56:27.432Z,11.00
2017-10-02T02:57:01.141Z,11.00
2017-10-02T02:57:34.860Z,11.00
2017-10-02T02:58:08.617Z,11.00
2017-10-02T02:58:42.739Z,10.90
2017-10-02T02:59:16.456Z,11.00
2017-10-02T02:59:50.160Z,11.00
2017-10-02T03:00:23.984Z,10.90
2017-10-02T03:00:58.650Z,11.00
2017-10-02T03:01:32.369Z,10.90
2017-10-02T03:02:06.085Z,11.00
2017-10-02T03:02:40.568Z,11.00
2017-10-02T03:03:14.276Z,10.90
2017-10-02T03:03:49.112Z,11.00
2017-10-02T03:04:22.852Z,11.00
2017-10-02T03:04:56.678Z,11.00
2017-10-02T03:05:31.174Z,11.00
2017-10-02T03:06:04.200Z,11.00
2017-10-02T03:06:37.927Z,11.00
2017-10-02T03:07:11.954Z,11.00
2017-10-02T03:07:46.442Z,11.00
2017-10-02T03:08:20.154Z,11.00
2017-10-02T03:08:54.921Z,11.00
2017-10-02T03:09:28.638Z,11.00
2017-10-02T03:10:02.348Z,11.00
2017-10-02T03:10:36.833Z,11.00
2017-10-02T03:11:10.546Z,11.00
2017-10-02T03:11:45.020Z,11.00
2017-10-02T03:12:18.744Z,11.00
2017-10-02T03:12:53.228Z,11.00
2017-10-02T03:13:26.960Z,11.00
2017-10-02T03:14:01.057Z,11.00
2017-10-02T03:14:34.784Z,11.00
2017-10-02T03:15:08.509Z,11.00
2017-10-02T03:15:41.882Z,11.00
2017-10-02T03:16:15.592Z,11.00
2017-10-02T03:16:48.956Z,11.00
2017-10-02T03:17:22.667Z,11.00
2017-10-02T03:17:58.060Z,11.00
2017-10-02T03:18:31.779Z,11.00
2017-10-02T03:19:05.889Z,10.90
2017-10-02T03:19:40.359Z,11.00
2017-10-02T03:20:14.072Z,10.90
2017-10-02T03:20:47.788Z,10.90
2017-10-02T03:21:21.576Z,10.90
2017-10-02T03:21:56.048Z,10.90
2017-10-02T03:22:29.775Z,10.90
2017-10-02T03:23:04.260Z,10.90
2017-10-02T03:23:37.981Z,10.90
2017-10-02T03:24:12.388Z,10.90
2017-10-02T03:24:46.857Z,10.90
2017-10-02T03:25:20.559Z,10.90
2017-10-02T03:25:54.255Z,10.90
2017-10-02T03:26:27.970Z,10.90
2017-10-02T03:27:01.687Z,11.00
2017-10-02T03:27:35.404Z,10.90
2017-10-02T03:28:09.119Z,10.90
2017-10-02T03:28:43.604Z,10.90
2017-10-02T03:29:17.644Z,10.90
2017-10-02T03:29:51.372Z,10.90
2017-10-02T03:30:25.083Z,11.00
2017-10-02T03:30:58.793Z,10.90
2017-10-02T03:31:32.512Z,10.90
2017-10-02T03:32:06.224Z,10.90
2017-10-02T03:32:39.940Z,10.90
2017-10-02T03:33:13.317Z,10.90
2017-10-02T03:33:47.042Z,10.90
2017-10-02T03:34:21.067Z,10.90
2017-10-02T03:34:54.789Z,10.90
2017-10-02T03:35:28.512Z,10.90
2017-10-02T03:36:02.323Z,10.80
2017-10-02T03:36:36.810Z,10.80
2017-10-02T03:37:10.507Z,10.80
2017-10-02T03:37:44.233Z,10.80
2017-10-02T03:38:17.951Z,10.90
2017-10-02T03:38:51.653Z,10.90
2017-10-02T03:39:25.725Z,10.90
2017-10-02T03:39:59.434Z,10.80
2017-10-02T03:40:33.132Z,10.90
2017-10-02T03:41:06.840Z,10.90
2017-10-02T03:41:40.561Z,10.80
2017-10-02T03:42:15.036Z,10.90
2017-10-02T03:42:48.740Z,10.80
2017-10-02T03:43:22.457Z,10.90
2017-10-02T03:43:56.180Z,10.90
2017-10-02T03:44:30.246Z,10.90
2017-10-02T03:45:04.721Z,10.90
2017-10-02T03:45:38.467Z,10.80
2017-10-02T03:46:12.221Z,10.90
2017-10-02T03:46:46.726Z,10.80
2017-10-02T03:47:21.192Z,10.80
2017-10-02T03:47:54.908Z,10.80
2017-10-02T03:48:28.623Z,10.80
2017-10-02T03:49:03.117Z,10.80
2017-10-02T03:49:37.959Z,10.80
2017-10-02T03:50:11.664Z,10.80
2017-10-02T03:50:45.378Z,10.80
2017-10-02T03:51:19.094Z,10.80
2017-10-02T03:51:52.808Z,10.80
2017-10-02T03:52:27.292Z,10.80
2017-10-02T03:53:01.005Z,10.80
2017-10-02T03:53:35.130Z,10.80
2017-10-02T03:54:08.835Z,10.80
2017-10-02T03:54:42.903Z,10.80
2017-10-02T03:55:17.029Z,10.80
2017-10-02T03:55:50.394Z,10.80
2017-10-02T03:56:24.108Z,10.80
2017-10-02T03:56:57.808Z,10.80
2017-10-02T03:57:33.765Z,10.80
2017-10-02T03:58:07.305Z,10.80
2017-10-02T03:58:44.307Z,10.80
2017-10-02T03:59:27.044Z,10.80
2017-10-02T04:00:01.062Z,10.80
2017-10-02T04:00:35.557Z,10.80
2017-10-02T04:01:08.734Z,10.80
2017-10-02T04:01:42.866Z,10.80
2017-10-02T04:02:16.633Z,10.80
2017-10-02T04:02:51.116Z,10.70
2017-10-02T04:03:24.644Z,10.80
2017-10-02T04:03:58.365Z,10.80
2017-10-02T04:04:32.115Z,10.80
2017-10-02T04:05:05.812Z,10.70
2017-10-02T04:05:39.538Z,10.80
2017-10-02T04:06:13.386Z,10.80
2017-10-02T04:06:47.854Z,10.70
2017-10-02T04:07:21.572Z,10.80
2017-10-02T04:07:55.287Z,10.70
2017-10-02T04:08:29.036Z,10.80
2017-10-02T04:09:02.565Z,10.80
2017-10-02T04:09:36.447Z,10.80
2017-10-02T04:10:10.753Z,10.80
2017-10-02T04:10:44.301Z,10.70
2017-10-02T04:11:18.026Z,10.80
2017-10-02T04:11:52.520Z,10.70
2017-10-02T04:12:26.250Z,10.70
2017-10-02T04:13:00.192Z,10.80
2017-10-02T04:13:33.713Z,10.80
2017-10-02T04:14:08.192Z,10.80
2017-10-02T04:14:41.905Z,10.70
2017-10-02T04:15:15.932Z,10.70
2017-10-02T04:15:49.655Z,10.80
2017-10-02T04:16:23.198Z,10.70
2017-10-02T04:16:56.899Z,10.70
2017-10-02T04:17:30.616Z,10.70
2017-10-02T04:18:04.331Z,10.70
2017-10-02T04:18:38.048Z,10.70
2017-10-02T04:19:12.535Z,10.70
2017-10-02T04:19:46.248Z,10.70
2017-10-02T04:20:21.076Z,10.70
2017-10-02T04:20:54.797Z,10.70
2017-10-02T04:21:28.515Z,10.70
2017-10-02T04:22:02.237Z,10.70
2017-10-02T04:22:36.716Z,10.70
2017-10-02T04:23:10.534Z,10.70
2017-10-02T04:23:45.016Z,10.70
2017-10-02T04:24:18.716Z,10.70
2017-10-02T04:24:52.438Z,10.70
2017-10-02T04:25:26.538Z,10.70
2017-10-02T04:26:00.248Z,10.70
2017-10-02T04:26:34.005Z,10.70
2017-10-02T04:27:08.481Z,10.70
2017-10-02T04:27:42.200Z,10.70
2017-10-02T04:28:16.678Z,10.70
2017-10-02T04:28:50.404Z,10.70
2017-10-02T04:29:24.875Z,10.70
2017-10-02T04:29:58.589Z,10.70
2017-10-02T04:30:32.714Z,10.70
2017-10-02T04:31:06.438Z,10.70
2017-10-02T04:31:40.150Z,10.70
2017-10-02T04:32:13.864Z,10.70
2017-10-02T04:32:47.580Z,10.70
2017-10-02T04:33:21.304Z,10.70
2017-10-02T04:33:55.016Z,10.70
2017-10-02T04:34:28.731Z,10.70
2017-10-02T04:35:03.204Z,10.70
2017-10-02T04:35:37.272Z,10.70
2017-10-02T04:36:10.980Z,10.70
2017-10-02T04:36:44.722Z,10.70
2017-10-02T04:37:19.204Z,10.70
2017-10-02T04:37:52.922Z,10.70
2017-10-02T04:38:27.407Z,10.70
2017-10-02T04:39:01.117Z,10.70
2017-10-02T04:39:34.828Z,10.70
2017-10-02T04:40:08.550Z,10.70
2017-10-02T04:40:42.394Z,10.70
2017-10-02T04:41:16.885Z,10.70
2017-10-02T04:41:50.696Z,10.70
2017-10-02T04:42:25.176Z,10.70
2017-10-02T04:42:58.879Z,10.70
2017-10-02T04:43:32.591Z,10.70
2017-10-02T04:44:07.068Z,10.70
2017-10-02T04:44:40.772Z,10.70
2017-10-02T04:45:14.485Z,10.70
2017-10-02T04:45:49.390Z,10.80
2017-10-02T04:46:23.867Z,10.80
2017-10-02T04:46:57.573Z,10.70
2017-10-02T04:47:30.950Z,10.80
2017-10-02T04:48:04.658Z,10.80
2017-10-02T04:48:38.368Z,10.80
2017-10-02T04:49:12.112Z,10.80
2017-10-02T04:49:45.877Z,10.80
2017-10-02T04:50:19.588Z,10.80
2017-10-02T04:50:53.630Z,10.80
2017-10-02T04:51:28.105Z,10.80
2017-10-02T04:52:01.826Z,10.70
2017-10-02T04:52:36.335Z,10.80
2017-10-02T04:53:10.817Z,10.80
2017-10-02T04:53:44.533Z,10.80
2017-10-02T04:54:18.659Z,10.80
2017-10-02T04:54:52.367Z,10.80
2017-10-02T04:55:26.066Z,10.80
2017-10-02T04:56:00.149Z,10.80
2017-10-02T04:56:33.864Z,10.80
2017-10-02T04:57:07.571Z,10.80
2017-10-02T04:57:41.276Z,10.80
2017-10-02T04:58:15.753Z,10.80
2017-10-02T04:58:49.472Z,10.80
2017-10-02T04:59:23.189Z,10.80
2017-10-02T04:59:56.968Z,10.80
2017-10-02T05:00:31.471Z,10.80
2017-10-02T05:01:06.250Z,10.80
2017-10-02T05:01:39.964Z,10.80
2017-10-02T05:02:13.688Z,10.80
2017-10-02T05:02:47.431Z,10.80
2017-10-02T05:03:21.156Z,10.80
2017-10-02T05:03:55.640Z,10.90
2017-10-02T05:04:29.164Z,10.90
2017-10-02T05:05:03.633Z,10.90
2017-10-02T05:05:38.649Z,10.90
2017-10-02T05:06:12.681Z,10.90
2017-10-02T05:06:47.165Z,10.90
2017-10-02T05:07:20.876Z,10.90
2017-10-02T05:07:55.353Z,10.90
2017-10-02T05:08:29.125Z,10.90
2017-10-02T05:09:02.828Z,10.90
2017-10-02T05:09:36.538Z,10.90
2017-10-02T05:10:10.260Z,11.00
2017-10-02T05:10:43.985Z,11.00
2017-10-02T05:11:18.056Z,10.90
2017-10-02T05:11:52.524Z,10.90
2017-10-02T05:12:26.254Z,10.90
2017-10-02T05:12:59.972Z,11.00
2017-10-02T05:13:33.672Z,11.00
2017-10-02T05:14:07.388Z,11.00
2017-10-02T05:14:41.095Z,11.00
2017-10-02T05:15:15.576Z,11.00
2017-10-02T05:15:49.299Z,11.00
2017-10-02T05:16:28.770Z,11.00
2017-10-02T05:17:02.506Z,11.00
2017-10-02T05:17:36.988Z,11.00
2017-10-02T05:18:10.702Z,11.00
2017-10-02T05:18:45.178Z,11.00
2017-10-02T05:19:18.907Z,11.00
2017-10-02T05:19:53.399Z,11.00
2017-10-02T05:20:27.111Z,11.00
2017-10-02T05:21:01.580Z,11.00
2017-10-02T05:21:35.579Z,11.00
2017-10-02T05:22:09.405Z,11.00
2017-10-02T05:22:43.893Z,11.10
2017-10-02T05:23:17.608Z,11.10
2017-10-02T05:23:52.089Z,11.10
2017-10-02T05:24:25.804Z,11.10
2017-10-02T05:25:00.272Z,11.10
2017-10-02T05:25:33.983Z,11.10
2017-10-02T05:26:07.710Z,11.10
2017-10-02T05:26:41.812Z,11.10
2017-10-02T05:27:15.521Z,11.10
2017-10-02T05:27:49.221Z,11.10
2017-10-02T05:28:22.940Z,11.10
2017-10-02T05:28:56.784Z,11.10
2017-10-02T05:29:30.503Z,11.10
2017-10-02T05:30:04.235Z,11.10
2017-10-02T05:30:38.733Z,11.10
2017-10-02T05:31:12.453Z,11.10
2017-10-02T05:31:46.569Z,11.10
2017-10-02T05:32:20.288Z,11.20
2017-10-02T05:32:54.006Z,11.10
2017-10-02T05:33:27.725Z,11.10
2017-10-02T05:34:01.436Z,11.20
2017-10-02T05:34:35.163Z,11.20
2017-10-02T05:35:08.880Z,11.20
2017-10-02T05:35:43.389Z,11.20
2017-10-02T05:36:17.872Z,11.20
2017-10-02T05:36:51.907Z,11.20
2017-10-02T05:37:25.624Z,11.20
2017-10-02T05:37:59.345Z,11.20
2017-10-02T05:38:33.066Z,11.30
2017-10-02T05:39:07.577Z,11.30
2017-10-02T05:39:42.061Z,11.30
2017-10-02T05:40:15.781Z,11.30
2017-10-02T05:40:50.283Z,11.30
2017-10-02T05:41:24.768Z,11.30
2017-10-02T05:41:58.811Z,11.30
2017-10-02T05:42:32.534Z,11.30
2017-10-02T05:43:06.251Z,11.40
2017-10-02T05:43:39.962Z,11.40
2017-10-02T05:44:14.442Z,11.40
2017-10-02T05:44:48.152Z,11.40
2017-10-02T05:45:22.656Z,11.40
2017-10-02T05:45:56.463Z,11.40
2017-10-02T05:46:30.943Z,11.40
2017-10-02T05:47:04.971Z,11.40
2017-10-02T05:47:39.434Z,11.40
2017-10-02T05:48:13.154Z,11.40
2017-10-02T05:48:46.865Z,11.40
2017-10-02T05:49:21.338Z,11.40
2017-10-02T05:49:55.044Z,11.40
2017-10-02T05:50:28.761Z,11.40
2017-10-02T05:51:03.256Z,11.40
2017-10-02T05:51:37.732Z,11.40
2017-10-02T05:52:11.792Z,11.40
2017-10-02T05:52:45.529Z,11.40
2017-10-02T05:53:19.238Z,11.40
2017-10-02T05:53:52.954Z,11.40
2017-10-02T05:54:26.685Z,11.50
2017-10-02T05:55:00.201Z,11.50
2017-10-02T05:55:33.900Z,11.50
2017-10-02T05:56:07.601Z,11.50
2017-10-02T05:56:42.079Z,11.50
2017-10-02T05:57:16.117Z,11.50
2017-10-02T05:57:49.833Z,11.50
2017-10-02T05:58:23.550Z,11.50
2017-10-02T05:58:57.266Z,11.50
2017-10-02T05:59:30.975Z,11.50
2017-10-02T06:00:03.996Z,11.50
2017-10-02T06:00:37.702Z,11.60
2017-10-02T06:01:11.400Z,11.60
2017-10-02T06:01:45.105Z,11.60
2017-10-02T06:02:19.943Z,11.60
2017-10-02T06:02:53.658Z,11.60
2017-10-02T06:03:27.364Z,11.60
2017-10-02T06:04:01.093Z,11.60
2017-10-02T06:04:35.578Z,11.60
2017-10-02T06:05:09.330Z,11.60
2017-10-02T06:05:43.036Z,11.60
2017-10-02T06:06:16.761Z,11.60
2017-10-02T06:06:50.467Z,11.60
2017-10-02T06:07:25.290Z,11.60
2017-10-02T06:07:59.024Z,11.60
2017-10-02T06:08:32.742Z,11.70
2017-10-02T06:09:06.459Z,11.70
2017-10-02T06:09:40.940Z,11.70
2017-10-02T06:10:14.661Z,11.70
2017-10-02T06:10:48.385Z,11.70
2017-10-02T06:11:22.117Z,11.70
2017-10-02T06:11:55.871Z,11.70
2017-10-02T06:12:29.940Z,11.70
2017-10-02T06:13:03.666Z,11.70
2017-10-02T06:13:37.386Z,11.70
2017-10-02T06:14:11.106Z,11.70
2017-10-02T06:14:45.581Z,11.70
2017-10-02T06:15:19.411Z,11.70
2017-10-02T06:15:53.153Z,11.70
2017-10-02T06:16:26.884Z,11.70
2017-10-02T06:17:01.365Z,11.70
2017-10-02T06:17:35.404Z,11.70
2017-10-02T06:18:09.127Z,11.70
2017-10-02T06:18:42.849Z,11.70
2017-10-02T06:19:16.590Z,11.70
2017-10-02T06:19:50.297Z,11.80
2017-10-02T06:20:24.017Z,11.80
2017-10-02T06:20:57.737Z,11.80
2017-10-02T06:21:32.228Z,11.80
2017-10-02T06:22:06.731Z,11.80
2017-10-02T06:22:40.761Z,11.80
2017-10-02T06:23:14.496Z,11.80
2017-10-02T06:23:48.211Z,11.80
2017-10-02T06:24:21.913Z,11.80
2017-10-02T06:24:56.398Z,11.90
2017-10-02T06:25:30.132Z,11.90
2017-10-02T06:26:03.880Z,11.90
2017-10-02T06:26:37.588Z,11.90
2017-10-02T06:27:11.299Z,12.00
2017-10-02T06:27:45.284Z,12.00
2017-10-02T06:28:19.769Z,12.00
2017-10-02T06:28:53.487Z,11.90
2017-10-02T06:29:27.980Z,12.00
2017-10-02T06:30:01.700Z,12.00
2017-10-02T06:30:35.424Z,12.00
2017-10-02T06:31:09.157Z,12.00
2017-10-02T06:31:44.044Z,12.00
2017-10-02T06:32:17.756Z,12.00
2017-10-02T06:32:51.794Z,12.00
2017-10-02T06:33:25.514Z,12.00
2017-10-02T06:33:59.249Z,12.10
2017-10-02T06:34:33.728Z,12.10
2017-10-02T06:35:07.441Z,12.00
2017-10-02T06:35:41.177Z,12.00
2017-10-02T06:36:14.948Z,12.10
2017-10-02T06:36:49.443Z,12.10
2017-10-02T06:37:23.926Z,12.10
2017-10-02T06:37:57.931Z,12.10
2017-10-02T06:38:33.218Z,12.10
2017-10-02T06:39:06.951Z,12.10
2017-10-02T06:39:40.735Z,12.10
2017-10-02T06:40:14.454Z,12.10
2017-10-02T06:40:48.933Z,12.10
2017-10-02T06:41:22.652Z,12.10
2017-10-02T06:41:57.150Z,12.10
2017-10-02T06:42:31.629Z,12.20
2017-10-02T06:43:05.680Z,12.10
2017-10-02T06:43:39.385Z,12.20
2017-10-02T06:44:13.100Z,12.20
2017-10-02T06:44:46.839Z,12.20
2017-10-02T06:45:21.324Z,12.20
2017-10-02T06:45:55.041Z,12.20
2017-10-02T06:46:29.524Z,12.20
2017-10-02T06:47:03.237Z,12.20
2017-10-02T06:47:38.238Z,12.20
2017-10-02T06:48:12.268Z,12.20
2017-10-02T06:48:46.746Z,12.20
2017-10-02T06:49:20.454Z,12.20
2017-10-02T06:49:54.938Z,12.30
2017-10-02T06:50:28.646Z,12.30
2017-10-02T06:51:03.161Z,12.30
2017-10-02T06:51:37.640Z,12.30
2017-10-02T06:52:11.360Z,12.30
2017-10-02T06:52:45.855Z,12.30
2017-10-02T06:53:19.869Z,12.30
2017-10-02T06:53:54.352Z,12.30
2017-10-02T06:54:28.084Z,12.30
2017-10-02T06:55:01.801Z,12.40
2017-10-02T06:55:35.520Z,12.40
2017-10-02T06:56:09.244Z,12.40
2017-10-02T06:56:43.747Z,12.40
2017-10-02T06:57:18.235Z,12.40
2017-10-02T06:57:51.961Z,12.40
2017-10-02T06:58:26.068Z,12.40
2017-10-02T06:58:59.837Z,12.50
2017-10-02T06:59:34.311Z,12.50
2017-10-02T07:00:07.841Z,12.50
2017-10-02T07:00:42.321Z,12.50
2017-10-02T07:01:16.054Z,12.50
2017-10-02T07:01:49.759Z,12.50
2017-10-02T07:02:23.472Z,12.50
2017-10-02T07:02:57.189Z,12.50
2017-10-02T07:03:31.212Z,12.60
2017-10-02T07:04:05.708Z,12.60
2017-10-02T07:04:39.521Z,12.60
2017-10-02T07:05:13.230Z,12.60
2017-10-02T07:05:46.596Z,12.60
2017-10-02T07:06:20.306Z,12.60
2017-10-02T07:06:54.021Z,12.60
2017-10-02T07:07:27.737Z,12.60
2017-10-02T07:08:01.457Z,12.60
2017-10-02T07:08:35.560Z,12.70
2017-10-02T07:09:09.276Z,12.70
2017-10-02T07:09:42.981Z,12.70
2017-10-02T07:10:16.811Z,12.70
2017-10-02T07:10:51.319Z,12.80
2017-10-02T07:11:25.797Z,12.80
2017-10-02T07:11:59.516Z,12.80
2017-10-02T07:12:34.000Z,12.80
2017-10-02T07:13:07.713Z,12.80
2017-10-02T07:13:42.469Z,12.80
2017-10-02T07:14:15.995Z,12.80
2017-10-02T07:14:49.708Z,12.80
2017-10-02T07:15:24.177Z,12.90
2017-10-02T07:15:57.893Z,12.90
2017-10-02T07:16:31.604Z,12.90
2017-10-02T07:17:06.081Z,12.90
2017-10-02T07:17:39.797Z,12.90
2017-10-02T07:18:14.268Z,13.00